Flight Briefing for CPX262

Departure Arrival
General Edward Lawrence Logan International Airport (KBOS)
Click to view FAA NOTAMS
Kansas City International Airport (KMCI)
Click to view FAA NOTAMS
Departure Time Arrival Time
N/A N/A
Aircraft Distance
B767-300BDSF 1090nm
Departure METAR Arrival METAR
KBOS 152054Z 19013KT 10SM FEW009 OVC014 11/08 A2965 RMK AO2 SLP041 60007 T01110083 56034 KMCI 152053Z 36007KT 1 1/2SM -SN OVC050 M10/M13 A3005 RMK AO2 SFC VIS 2 SLP191 P0002 60010 T11001128 55000
Suggested Route
HYLND5 HYLND CAM Q822 GONZZ Q29 DORET DJB J60 JOT J26 IRK BQS6


View recent IFR Routes data
Notes
METROAIR CARGO SUPPORT

Charts and Procedures

Charts for KBOS
No chart available
Charts for KMCI
No chart available

Ventusky Weather